Time;durP1;ratioP1;P1;durP2;ratioP2;P2;SDS_P1;SDS_P2;PMS_P1;PMS_P2;Temp;Humidity;BMP_temperature;BMP_pressure;BME280_temperature;BME280_humidity;BME280_pressure;Samples;Min_cycle;Max_cycle;Signal;HPM_P1;HPM_P2
2022/05/06 00:00:37;;;;;;;8.63;7.63;;;12.20;99.90;;;;;;5055054;28;20045;-70
2022/05/06 00:03:04;;;;;;;14.13;9.03;;;12.20;99.90;;;;;;5053852;28;20037;-69
2022/05/06 00:05:31;;;;;;;13.13;8.50;;;12.20;99.90;;;;;;5053669;28;20052;-70
2022/05/06 00:07:58;;;;;;;9.60;7.95;;;12.20;99.90;;;;;;5053698;28;20358;-70
2022/05/06 00:10:25;;;;;;;10.90;8.55;;;12.20;99.90;;;;;;5055416;28;20040;-70
2022/05/06 00:12:52;;;;;;;9.50;8.50;;;12.20;99.90;;;;;;5054805;28;20045;-70
2022/05/06 00:15:19;;;;;;;10.82;7.55;;;12.20;99.90;;;;;;5054810;28;20041;-70
2022/05/06 00:17:46;;;;;;;9.82;7.88;;;12.30;99.90;;;;;;5054400;28;20053;-69
2022/05/06 00:20:13;;;;;;;8.65;6.95;;;12.30;99.90;;;;;;5055190;28;20051;-70
2022/05/06 00:22:40;;;;;;;13.60;9.00;;;12.30;99.90;;;;;;5054232;28;20041;-70
2022/05/06 00:25:08;;;;;;;10.70;8.35;;;12.30;99.90;;;;;;5055287;28;20045;-70
2022/05/06 00:27:39;;;;;;;14.80;9.05;;;12.30;99.90;;;;;;5054273;28;20051;-70
2022/05/06 00:30:07;;;;;;;10.13;7.20;;;12.40;99.90;;;;;;5053361;28;20464;-70
2022/05/06 00:32:34;;;;;;;10.40;8.25;;;12.30;99.90;;;;;;5054244;28;20052;-69
2022/05/06 00:35:00;;;;;;;11.63;7.88;;;12.30;99.90;;;;;;5054105;28;20461;-70
2022/05/06 00:37:27;;;;;;;18.23;8.70;;;12.30;99.90;;;;;;5054178;28;20041;-70
2022/05/06 00:39:54;;;;;;;9.30;8.30;;;12.30;99.90;;;;;;5055342;28;20360;-70
2022/05/06 00:42:22;;;;;;;9.48;7.60;;;12.20;99.90;;;;;;5054257;28;20040;-70
2022/05/06 00:44:48;;;;;;;12.52;8.38;;;12.20;99.90;;;;;;5053755;28;20037;-70
2022/05/06 00:47:17;;;;;;;7.88;7.07;;;12.20;99.90;;;;;;5053541;28;20045;-70
2022/05/06 00:49:43;;;;;;;10.75;8.15;;;12.10;99.90;;;;;;5052817;28;20048;-70
2022/05/06 00:52:10;;;;;;;10.27;7.75;;;12.10;99.90;;;;;;5036217;28;20059;-70
2022/05/06 00:54:37;;;;;;;9.75;7.80;;;12.00;99.90;;;;;;5052762;28;20045;-70
2022/05/06 00:57:06;;;;;;;10.73;8.70;;;12.00;99.90;;;;;;5052551;28;20045;-70
2022/05/06 01:00:17;;;;;;;9.97;8.07;;;11.90;99.90;;;;;;5052811;28;20457;-69
2022/05/06 01:02:22;;;;;;;11.88;8.15;;;11.90;99.90;;;;;;5054676;28;20059;-70
2022/05/06 01:04:54;;;;;;;10.98;8.60;;;11.80;99.90;;;;;;5053074;28;20123;-70
2022/05/06 01:07:21;;;;;;;12.07;8.93;;;11.80;99.90;;;;;;5053518;28;20045;-70
2022/05/06 01:09:51;;;;;;;11.90;9.55;;;11.80;99.90;;;;;;5053833;28;20045;-70
2022/05/06 01:12:19;;;;;;;10.82;8.75;;;11.70;99.90;;;;;;5036392;28;20037;-70
2022/05/06 01:14:46;;;;;;;12.82;9.38;;;11.70;99.90;;;;;;5053961;28;20393;-70
2022/05/06 01:17:14;;;;;;;12.07;9.38;;;11.60;99.90;;;;;;5053413;28;20045;-69
2022/05/06 01:19:41;;;;;;;12.20;8.70;;;11.60;99.90;;;;;;5053382;28;20045;-70
2022/05/06 01:22:08;;;;;;;11.13;9.38;;;11.50;99.90;;;;;;5054206;28;20464;-69
2022/05/06 01:24:35;;;;;;;11.38;10.07;;;11.50;99.90;;;;;;5053154;28;20048;-70
2022/05/06 01:27:06;;;;;;;13.10;9.35;;;11.40;99.90;;;;;;5053519;28;20385;-70
2022/05/06 01:29:33;;;;;;;11.57;9.18;;;11.40;99.90;;;;;;5052462;28;20045;-70
2022/05/06 01:32:00;;;;;;;11.98;9.77;;;11.40;99.90;;;;;;5053210;28;20047;-70
2022/05/06 01:34:29;;;;;;;11.77;9.73;;;11.30;99.90;;;;;;5052343;28;20041;-69
2022/05/06 01:36:57;;;;;;;13.00;10.87;;;11.30;99.90;;;;;;5053274;28;20384;-70
2022/05/06 01:39:29;;;;;;;10.70;9.57;;;11.30;99.90;;;;;;5035846;28;20047;-70
2022/05/06 01:41:58;;;;;;;11.63;9.50;;;11.20;99.90;;;;;;5053211;28;20047;-69
2022/05/06 01:44:26;;;;;;;13.35;10.32;;;11.20;99.90;;;;;;5053072;28;20045;-70
2022/05/06 01:46:54;;;;;;;11.82;9.93;;;11.20;99.90;;;;;;5053286;28;20044;-70
2022/05/06 01:49:20;;;;;;;10.18;8.32;;;11.10;99.90;;;;;;5051927;28;20049;-70
2022/05/06 01:51:47;;;;;;;11.40;10.20;;;11.10;99.90;;;;;;5052396;28;20055;-70
2022/05/06 01:54:14;;;;;;;13.10;9.82;;;11.10;99.90;;;;;;5052944;28;20045;-70
2022/05/06 01:56:41;;;;;;;9.98;8.88;;;11.10;99.90;;;;;;5036884;28;20041;-70
2022/05/06 01:59:08;;;;;;;9.93;8.30;;;11.10;99.90;;;;;;5058096;28;20048;-70
2022/05/06 02:01:35;;;;;;;13.10;9.60;;;11.00;99.90;;;;;;5057488;28;20048;-70
2022/05/06 02:06:48;;;;;;;12.35;8.85;;;11.00;99.90;;;;;;5057113;28;20041;-69
2022/05/06 02:09:16;;;;;;;10.95;7.63;;;11.00;99.90;;;;;;5055915;28;20048;-70
2022/05/06 02:11:43;;;;;;;12.05;8.98;;;11.00;99.90;;;;;;5056787;28;20045;-70
2022/05/06 02:14:10;;;;;;;11.10;9.63;;;11.00;99.90;;;;;;5039441;28;20049;-70
2022/05/06 02:16:37;;;;;;;12.32;10.23;;;11.00;99.90;;;;;;5057041;28;20063;-69
2022/05/06 02:19:06;;;;;;;11.75;9.50;;;11.00;99.90;;;;;;5056692;28;20049;-70
2022/05/06 02:21:34;;;;;;;12.83;10.20;;;11.00;99.90;;;;;;5056036;28;20048;-69
2022/05/06 02:24:01;;;;;;;16.85;11.05;;;10.90;99.90;;;;;;5056770;28;20469;-70
2022/05/06 02:26:28;;;;;;;14.13;10.13;;;11.00;99.90;;;;;;5057850;28;20390;-70
2022/05/06 02:28:55;;;;;;;13.00;10.95;;;10.90;99.90;;;;;;5056699;28;20045;-70
2022/05/06 02:34:07;;;;;;;12.77;10.00;;;10.90;99.90;;;;;;5057560;28;20044;-70
2022/05/06 02:36:34;;;;;;;14.75;11.00;;;10.90;99.90;;;;;;5057478;28;20049;-70
2022/05/06 02:39:01;;;;;;;13.27;10.55;;;10.90;99.90;;;;;;5055562;28;20110;-69
2022/05/06 02:41:28;;;;;;;12.45;9.82;;;10.90;99.90;;;;;;5055400;28;20124;-69
2022/05/06 02:43:54;;;;;;;13.52;11.05;;;10.90;99.90;;;;;;5057327;28;20047;-69
2022/05/06 02:46:21;;;;;;;13.13;10.10;;;10.80;99.90;;;;;;5055173;28;20045;-69
2022/05/06 02:48:48;;;;;;;13.55;9.95;;;10.80;99.90;;;;;;5056099;28;20415;-70
2022/05/06 02:51:15;;;;;;;12.13;9.75;;;10.80;99.90;;;;;;5055532;28;20045;-70
2022/05/06 02:53:42;;;;;;;16.42;11.20;;;10.80;99.90;;;;;;5056250;28;20492;-69
2022/05/06 02:56:09;;;;;;;11.75;9.68;;;10.80;99.90;;;;;;5056348;28;20049;-69
2022/05/06 02:58:36;;;;;;;16.08;10.82;;;10.80;99.90;;;;;;5055701;28;20111;-69
2022/05/06 03:01:03;;;;;;;13.52;11.30;;;10.80;99.90;;;;;;5056761;28;20049;-69
2022/05/06 03:03:33;;;;;;;11.93;10.40;;;10.80;99.90;;;;;;5054929;28;20048;-70
2022/05/06 03:06:00;;;;;;;11.77;10.57;;;10.80;99.90;;;;;;5039405;28;20431;-70
2022/05/06 03:08:27;;;;;;;14.18;10.18;;;10.70;99.90;;;;;;5054890;28;20053;-69
2022/05/06 03:10:54;;;;;;;11.55;9.77;;;10.70;99.90;;;;;;5055731;28;20465;-70
2022/05/06 03:13:21;;;;;;;13.02;10.38;;;10.70;99.90;;;;;;5054507;28;20075;-70
2022/05/06 03:15:48;;;;;;;16.15;10.85;;;10.60;99.90;;;;;;5055642;28;20060;-70
2022/05/06 03:18:14;;;;;;;13.57;11.43;;;10.60;99.90;;;;;;5055549;28;20061;-70
2022/05/06 03:20:43;;;;;;;13.60;10.35;;;10.60;99.90;;;;;;5055833;28;20090;-70
2022/05/06 03:23:10;;;;;;;11.38;9.43;;;10.50;99.90;;;;;;5054630;28;20041;-70
2022/05/06 03:25:36;;;;;;;13.57;11.00;;;10.50;99.90;;;;;;5054469;28;20059;-70
2022/05/06 03:28:07;;;;;;;12.18;10.07;;;10.50;99.90;;;;;;5055690;28;20048;-70
2022/05/06 03:30:40;;;;;;;11.60;9.98;;;10.40;99.90;;;;;;5054593;28;20037;-70
2022/05/06 03:33:10;;;;;;;11.98;10.13;;;10.40;99.90;;;;;;5054540;28;20143;-70
2022/05/06 03:35:37;;;;;;;11.30;9.95;;;10.40;99.90;;;;;;5055241;28;20053;-70
2022/05/06 03:38:05;;;;;;;12.65;10.40;;;10.40;99.90;;;;;;5054374;28;20460;-69
2022/05/06 03:40:33;;;;;;;15.70;11.15;;;10.30;99.90;;;;;;5054320;28;20041;-69
2022/05/06 03:43:00;;;;;;;11.95;9.45;;;10.30;99.90;;;;;;5054252;28;20037;-70
2022/05/06 03:45:27;;;;;;;12.70;10.10;;;10.30;99.90;;;;;;5054483;28;20040;-70
2022/05/06 03:47:54;;;;;;;11.38;9.38;;;10.30;99.90;;;;;;5054534;28;20072;-70
2022/05/06 03:53:07;;;;;;;13.13;9.80;;;10.20;99.90;;;;;;5055127;28;20059;-70
2022/05/06 03:55:34;;;;;;;12.88;9.95;;;10.20;99.90;;;;;;5053994;28;20044;-70
2022/05/06 03:58:02;;;;;;;15.13;10.40;;;10.20;99.90;;;;;;5054486;28;20044;-70
2022/05/06 04:00:29;;;;;;;12.00;10.23;;;10.30;99.90;;;;;;5054164;28;20037;-70
2022/05/06 04:02:55;;;;;;;13.20;11.02;;;10.30;99.90;;;;;;5054137;28;20045;-69
2022/05/06 04:05:22;;;;;;;12.50;9.25;;;10.20;99.90;;;;;;5054688;28;20057;-70
2022/05/06 04:07:49;;;;;;;12.23;9.75;;;10.20;99.90;;;;;;5054932;28;20045;-70
2022/05/06 04:10:16;;;;;;;12.48;9.63;;;10.20;99.90;;;;;;5037339;28;20052;-70
2022/05/06 04:12:44;;;;;;;14.32;10.18;;;10.20;99.90;;;;;;5053670;28;20051;-70
2022/05/06 04:15:11;;;;;;;14.32;11.45;;;10.20;99.90;;;;;;5054166;28;20072;-70
2022/05/06 04:17:38;;;;;;;13.95;9.77;;;10.20;99.90;;;;;;5055433;28;20048;-69
2022/05/06 04:25:38;;;;;;;13.40;10.18;;;10.10;99.90;;;;;;5054424;28;20049;-70
2022/05/06 04:28:05;;;;;;;12.52;10.25;;;10.10;99.90;;;;;;5054100;28;20067;-70
2022/05/06 04:30:32;;;;;;;13.45;10.93;;;10.10;99.90;;;;;;5053841;28;20396;-70
2022/05/06 04:32:59;;;;;;;13.73;10.43;;;10.10;99.90;;;;;;5054679;28;20052;-70
2022/05/06 04:35:26;;;;;;;14.70;9.18;;;10.10;99.90;;;;;;5053182;28;20048;-70
2022/05/06 04:37:52;;;;;;;15.75;9.80;;;10.10;99.90;;;;;;5052946;28;20053;-70
2022/05/06 04:40:19;;;;;;;15.43;11.70;;;10.20;99.90;;;;;;5054349;28;20047;-70
2022/05/06 04:42:46;;;;;;;14.40;11.73;;;10.20;99.90;;;;;;5053962;28;20041;-70
2022/05/06 04:45:13;;;;;;;15.68;10.32;;;10.20;99.90;;;;;;5052984;28;20048;-69
2022/05/06 04:47:40;;;;;;;16.35;11.00;;;10.30;99.90;;;;;;5053742;28;20044;-70
2022/05/06 04:50:07;;;;;;;13.55;10.35;;;10.30;99.90;;;;;;5052891;28;20388;-70
2022/05/06 04:52:34;;;;;;;13.82;10.85;;;10.30;99.90;;;;;;5053692;28;20060;-70
2022/05/06 04:55:01;;;;;;;14.13;9.50;;;10.40;99.90;;;;;;5053994;28;20484;-70
2022/05/06 04:57:28;;;;;;;19.27;12.55;;;10.40;99.90;;;;;;5053992;28;20052;-70
2022/05/06 04:59:55;;;;;;;15.45;9.80;;;10.40;99.90;;;;;;5054776;28;20045;-69
2022/05/06 05:02:22;;;;;;;15.15;10.77;;;10.50;99.90;;;;;;5054693;28;20090;-70
2022/05/06 05:04:52;;;;;;;14.95;9.45;;;10.60;99.90;;;;;;5053607;28;20124;-70
2022/05/06 05:07:19;;;;;;;17.00;10.65;;;10.70;99.90;;;;;;5053493;28;20472;-70
2022/05/06 05:09:46;;;;;;;18.98;11.27;;;11.00;99.90;;;;;;5054117;28;20052;-69
2022/05/06 05:12:13;;;;;;;18.60;10.70;;;11.30;99.90;;;;;;5054586;28;20040;-69
2022/05/06 05:14:41;;;;;;;18.38;10.68;;;11.60;99.90;;;;;;5054292;28;20098;-70
2022/05/06 05:17:09;;;;;;;13.02;9.85;;;11.90;99.90;;;;;;5053395;28;20044;-69
2022/05/06 05:19:37;;;;;;;14.68;11.57;;;12.20;99.90;;;;;;5053742;28;20052;-70
2022/05/06 05:22:04;;;;;;;12.38;9.07;;;12.40;99.90;;;;;;5053682;28;20511;-69
2022/05/06 05:24:31;;;;;;;13.80;10.13;;;12.70;99.90;;;;;;5052591;28;20334;-69
2022/05/06 05:26:58;;;;;;;14.45;9.90;;;13.00;99.90;;;;;;5052343;28;20380;-70
2022/05/06 05:29:28;;;;;;;15.80;10.15;;;13.20;99.90;;;;;;5052148;28;20045;-70
2022/05/06 05:31:55;;;;;;;18.80;10.48;;;13.40;99.90;;;;;;5052229;28;20052;-70
2022/05/06 05:34:22;;;;;;;15.73;10.32;;;13.60;99.90;;;;;;5053521;28;20036;-70
2022/05/06 05:36:49;;;;;;;15.88;9.85;;;13.70;99.90;;;;;;5053143;28;20412;-70
2022/05/06 05:39:15;;;;;;;11.95;9.52;;;13.70;99.90;;;;;;5053395;28;20171;-70
2022/05/06 05:41:42;;;;;;;14.95;11.05;;;13.80;99.90;;;;;;5054209;28;20416;-70
2022/05/06 05:49:40;;;;;;;15.30;11.65;;;14.10;99.90;;;;;;5054277;28;20048;-70
2022/05/06 05:52:07;;;;;;;14.77;9.07;;;14.10;99.90;;;;;;5053560;28;20377;-69
2022/05/06 05:54:34;;;;;;;18.90;11.30;;;14.10;99.90;;;;;;5051800;28;20477;-70
2022/05/06 05:57:01;;;;;;;16.48;11.35;;;14.00;99.90;;;;;;5051763;28;20045;-70
2022/05/06 05:59:28;;;;;;;17.23;10.80;;;14.00;99.90;;;;;;5051760;28;20048;-70
2022/05/06 06:01:55;;;;;;;13.73;10.23;;;13.90;99.90;;;;;;5052937;28;20045;-70
2022/05/06 06:04:22;;;;;;;15.07;10.38;;;13.90;99.90;;;;;;5052558;28;20059;-70
2022/05/06 06:06:49;;;;;;;17.50;10.75;;;13.90;99.90;;;;;;5053343;28;20048;-69
2022/05/06 06:09:17;;;;;;;21.58;18.02;;;14.00;99.90;;;;;;5053280;28;20052;-72
2022/05/06 06:11:44;;;;;;;65.05;50.13;;;14.00;99.90;;;;;;5052001;28;20443;-72
2022/05/06 06:14:11;;;;;;;27.25;20.42;;;14.00;99.90;;;;;;5053193;28;20037;-73
2022/05/06 06:16:38;;;;;;;17.55;12.50;;;14.10;99.90;;;;;;5053171;28;20037;-69
2022/05/06 06:19:05;;;;;;;16.73;13.70;;;14.20;99.90;;;;;;5052746;28;20473;-69
2022/05/06 06:21:33;;;;;;;18.77;12.68;;;14.20;99.90;;;;;;5053755;28;20041;-68
2022/05/06 06:24:00;;;;;;;18.05;12.30;;;14.30;99.90;;;;;;5051823;28;20041;-70
2022/05/06 06:26:27;;;;;;;53.53;40.67;;;14.40;99.90;;;;;;5051788;28;20045;-68
2022/05/06 06:28:54;;;;;;;29.38;21.70;;;14.40;99.90;;;;;;5053308;28;20120;-68
2022/05/06 06:31:21;;;;;;;20.20;12.95;;;14.50;99.90;;;;;;5035445;28;20048;-64
2022/05/06 06:33:48;;;;;;;21.95;12.77;;;14.50;99.90;;;;;;5052552;28;20037;-70
2022/05/06 06:36:15;;;;;;;82.53;67.70;;;14.60;99.90;;;;;;5051279;28;20041;-70
2022/05/06 06:38:43;;;;;;;91.88;76.53;;;14.60;99.90;;;;;;5051315;28;20045;-70
2022/05/06 06:41:09;;;;;;;30.38;23.98;;;14.60;99.90;;;;;;5052386;28;20048;-64
2022/05/06 06:43:41;;;;;;;21.45;14.82;;;14.70;99.90;;;;;;5053451;28;20087;-63
2022/05/06 06:46:08;;;;;;;20.42;12.75;;;14.70;99.90;;;;;;5055936;28;20047;-66
2022/05/06 06:48:35;;;;;;;17.58;12.88;;;14.70;99.90;;;;;;5054854;28;20044;-70
2022/05/06 06:51:04;;;;;;;16.90;12.23;;;14.70;99.90;;;;;;5055069;28;20037;-73
2022/05/06 06:53:31;;;;;;;47.92;39.90;;;14.70;99.90;;;;;;5056018;28;20059;-58
2022/05/06 06:55:58;;;;;;;65.80;42.17;;;14.70;99.90;;;;;;5056129;28;20072;-70
2022/05/06 06:58:25;;;;;;;24.20;14.65;;;14.80;99.90;;;;;;5056339;28;20037;-70
2022/05/06 07:00:55;;;;;;;18.13;12.48;;;14.70;99.90;;;;;;5054473;28;20045;-65
2022/05/06 07:03:21;;;;;;;;;;;14.70;99.90;;;;;;5055486;28;20045;-68
2022/05/06 07:14:05;;;;;;;18.17;12.30;;;14.80;99.90;;;;;;5055405;28;20052;-68
2022/05/06 07:16:32;;;;;;;15.25;11.55;;;14.90;99.90;;;;;;5055784;28;20052;-68
2022/05/06 07:18:59;;;;;;;17.35;12.00;;;15.00;99.90;;;;;;5054490;28;20080;-67
2022/05/06 07:21:26;;;;;;;17.83;11.65;;;15.10;99.90;;;;;;5056218;28;20049;-68
2022/05/06 07:23:53;;;;;;;21.35;13.20;;;15.10;99.90;;;;;;5055590;28;20053;-68
2022/05/06 07:26:20;;;;;;;18.55;11.45;;;15.10;99.90;;;;;;5055272;28;20041;-58
2022/05/06 07:28:46;;;;;;;19.25;13.07;;;15.20;99.90;;;;;;5055131;28;20052;-67
2022/05/06 07:31:13;;;;;;;18.85;13.05;;;15.20;99.90;;;;;;5056062;28;20056;-71
2022/05/06 07:33:40;;;;;;;19.52;12.30;;;15.20;99.90;;;;;;5055460;28;20045;-70
2022/05/06 07:36:07;;;;;;;19.75;13.18;;;15.30;99.90;;;;;;5055270;28;20067;-71
2022/05/06 07:38:34;;;;;;;20.73;13.02;;;15.30;99.90;;;;;;5054472;28;20047;-73
2022/05/06 07:41:03;;;;;;;17.13;11.98;;;15.40;99.90;;;;;;5037749;28;20045;-71
2022/05/06 07:43:30;;;;;;;18.65;12.15;;;15.40;99.90;;;;;;5054978;28;20475;-72
2022/05/06 07:45:57;;;;;;;72.68;58.42;;;15.50;99.90;;;;;;5054976;28;20128;-71
2022/05/06 07:48:25;;;;;;;23.75;18.83;;;15.60;99.90;;;;;;5055167;28;20127;-70
2022/05/06 07:51:03;;;;;;;19.92;14.10;;;15.70;99.90;;;;;;5054970;28;20087;-73
2022/05/06 07:53:30;;;;;;;22.80;12.95;;;15.80;99.90;;;;;;5053484;28;20049;-77
2022/05/06 07:55:57;;;;;;;22.73;12.77;;;15.90;99.90;;;;;;5053729;28;20052;-74
2022/05/06 07:58:24;;;;;;;109.30;85.05;;;16.10;99.90;;;;;;5055049;28;20056;-68
2022/05/06 08:00:51;;;;;;;30.67;17.85;;;16.20;99.90;;;;;;5054561;28;20049;-77
2022/05/06 08:06:07;;;;;;;21.77;12.43;;;16.40;99.90;;;;;;5055699;28;20045;-75
2022/05/06 08:08:37;;;;;;;18.25;13.30;;;16.40;99.90;;;;;;5054361;28;20037;-70
2022/05/06 08:11:03;;;;;;;16.45;11.68;;;16.50;99.90;;;;;;5053464;28;20052;-72
2022/05/06 08:13:30;;;;;;;14.27;10.80;;;16.60;99.90;;;;;;5053185;28;20491;-73
2022/05/06 08:15:57;;;;;;;14.82;10.57;;;16.70;99.90;;;;;;5054674;28;20041;-72
2022/05/06 08:18:25;;;;;;;15.35;11.73;;;16.80;99.90;;;;;;5054910;28;20056;-72
2022/05/06 08:20:52;;;;;;;16.33;10.43;;;16.90;99.90;;;;;;5054077;28;20048;-72
2022/05/06 08:23:21;;;;;;;17.52;11.40;;;16.90;99.90;;;;;;5054158;28;20045;-72
2022/05/06 08:25:48;;;;;;;18.30;10.80;;;16.90;99.90;;;;;;5052996;28;20056;-73
2022/05/06 08:28:17;;;;;;;18.38;11.50;;;16.90;99.90;;;;;;5054067;28;20090;-73
2022/05/06 08:30:44;;;;;;;20.42;12.65;;;17.00;99.90;;;;;;5054187;28;20045;-74
2022/05/06 08:33:11;;;;;;;17.95;11.93;;;17.10;99.90;;;;;;5054005;28;20056;-74
2022/05/06 08:35:38;;;;;;;16.38;11.57;;;17.30;99.90;;;;;;5053085;28;20072;-74
2022/05/06 08:38:07;;;;;;;16.42;10.07;;;17.40;99.90;;;;;;5053912;28;20045;-74
2022/05/06 08:40:35;;;;;;;14.00;9.77;;;17.40;99.90;;;;;;5054204;28;20049;-74
2022/05/06 08:43:04;;;;;;;16.58;10.25;;;17.40;99.90;;;;;;5052696;28;20040;-74
2022/05/06 08:51:03;;;;;;;16.05;10.55;;;17.80;99.90;;;;;;5053848;28;20372;-74
2022/05/06 08:53:34;;;;;;;18.75;10.18;;;18.00;99.90;;;;;;5054626;28;20059;-74
2022/05/06 08:56:04;;;;;;;13.77;8.70;;;18.00;99.90;;;;;;5037340;28;20048;-74
2022/05/06 08:58:34;;;;;;;13.45;8.23;;;18.00;99.90;;;;;;5052689;28;20454;-74
2022/05/06 09:01:08;;;;;;;15.80;10.07;;;18.20;99.90;;;;;;5053326;28;20049;-74
2022/05/06 09:03:43;;;;;;;12.45;9.02;;;18.30;99.90;;;;;;5052791;28;20049;-74
2022/05/06 09:06:26;;;;;;;13.98;8.52;;;18.30;99.90;;;;;;5052529;28;20107;-74
2022/05/06 09:08:57;;;;;;;12.50;8.95;;;18.30;99.90;;;;;;5053610;28;20040;-74
2022/05/06 09:14:16;;;;;;;12.18;7.78;;;18.40;99.90;;;;;;5052380;28;20044;-73
2022/05/06 09:16:46;;;;;;;10.85;7.30;;;18.50;99.90;;;;;;5035675;28;20045;-73
2022/05/06 09:19:20;;;;;;;10.57;7.43;;;18.50;99.90;;;;;;5053461;28;20048;-74
2022/05/06 09:22:00;;;;;;;9.45;7.00;;;18.50;99.90;;;;;;5053323;28;20094;-74
2022/05/06 09:24:31;;;;;;;8.63;6.93;;;18.60;99.90;;;;;;5053590;28;20063;-74
2022/05/06 09:27:03;;;;;;;13.00;7.07;;;18.60;99.90;;;;;;5052656;28;20067;-74
2022/05/06 09:29:33;;;;;;;11.25;6.40;;;18.70;99.90;;;;;;5052284;28;20072;-74
2022/05/06 09:32:25;;;;;;;11.15;6.80;;;18.80;99.90;;;;;;5052665;28;20068;-73
2022/05/06 09:35:13;;;;;;;7.68;6.40;;;18.80;99.90;;;;;;5053192;28;20555;-74
2022/05/06 09:37:42;;;;;;;9.43;5.90;;;18.80;99.90;;;;;;5053494;28;20060;-74
2022/05/06 09:40:12;;;;;;;10.43;5.78;;;18.80;99.90;;;;;;5051875;28;20452;-73
2022/05/06 09:42:55;;;;;;;7.55;5.88;;;19.00;98.70;;;;;;5052154;28;20045;-74
2022/05/06 09:45:40;;;;;;;23.02;6.85;;;19.00;99.70;;;;;;5053908;28;20052;-74
2022/05/06 09:48:09;;;;;;;7.90;6.43;;;19.10;99.90;;;;;;5037050;28;20412;-74
2022/05/06 09:50:38;;;;;;;10.02;5.95;;;19.20;99.90;;;;;;5053741;28;20045;-74
2022/05/06 09:53:07;;;;;;;8.82;5.18;;;19.30;98.00;;;;;;5051986;28;20085;-73
2022/05/06 09:55:35;;;;;;;7.57;5.60;;;19.40;97.80;;;;;;5052075;28;20045;-74
2022/05/06 09:58:02;;;;;;;7.90;4.50;;;19.50;97.00;;;;;;5051724;28;20056;-74
2022/05/06 10:00:29;;;;;;;11.23;4.50;;;19.60;95.00;;;;;;5052706;28;20052;-74
2022/05/06 10:02:56;;;;;;;6.68;3.58;;;19.70;94.30;;;;;;5052729;28;20128;-73
2022/05/06 10:05:24;;;;;;;5.82;3.20;;;19.70;90.60;;;;;;5051557;28;20037;-72
2022/05/06 10:07:53;;;;;;;8.93;2.95;;;19.80;82.40;;;;;;5052523;28;20068;-72
2022/05/06 10:10:25;;;;;;;6.22;3.08;;;19.80;83.90;;;;;;5052131;28;20079;-73
2022/05/06 10:12:57;;;;;;;6.88;4.05;;;19.90;84.70;;;;;;5051825;28;20047;-73
2022/05/06 10:15:26;;;;;;;4.95;3.20;;;19.90;82.90;;;;;;5052533;28;20342;-73
2022/05/06 10:18:02;;;;;;;6.35;3.65;;;20.00;81.80;;;;;;5054187;28;20049;-73
2022/05/06 10:23:08;;;;;;;9.15;4.13;;;20.30;83.80;;;;;;5056707;28;20487;-73
2022/05/06 10:25:42;;;;;;;6.53;3.13;;;20.40;81.60;;;;;;5055570;28;20420;-73
2022/05/06 10:34:08;;;;;;;6.00;3.40;;;20.70;77.50;;;;;;5056386;28;20128;-73
2022/05/06 10:36:42;;;;;;;7.28;3.60;;;20.80;79.20;;;;;;5054985;28;20072;-73
2022/05/06 10:39:27;;;;;;;6.57;3.28;;;20.90;77.00;;;;;;5055188;28;20052;-74
2022/05/06 10:42:04;;;;;;;5.45;3.20;;;21.00;74.10;;;;;;5056397;28;20392;-74
2022/05/06 10:44:35;;;;;;;5.20;3.05;;;21.00;74.00;;;;;;5056068;28;20056;-72
2022/05/06 10:47:04;;;;;;;3.35;2.40;;;21.10;75.50;;;;;;5054747;28;20045;-73
2022/05/06 10:49:40;;;;;;;5.27;2.77;;;21.20;75.10;;;;;;5038507;28;20071;-73
2022/05/06 10:52:20;;;;;;;6.47;3.00;;;21.30;70.60;;;;;;5056113;28;20080;-73
2022/05/06 10:54:52;;;;;;;7.00;2.70;;;21.30;68.60;;;;;;5055085;28;20053;-72
2022/05/06 10:57:24;;;;;;;7.43;2.83;;;21.30;68.80;;;;;;5054985;28;20041;-68
2022/05/06 11:00:00;;;;;;;6.80;3.03;;;21.40;71.00;;;;;;5054597;28;20127;-75
2022/05/06 11:02:29;;;;;;;30.15;27.42;;;21.40;70.60;;;;;;5054427;28;20045;-70
2022/05/06 11:04:57;;;;;;;18.55;16.73;;;21.40;66.20;;;;;;5056026;28;20123;-71
2022/05/06 11:07:26;;;;;;;5.63;3.28;;;21.40;64.90;;;;;;5054817;28;20128;-73
2022/05/06 11:09:53;;;;;;;3.20;2.05;;;21.30;61.80;;;;;;5055990;28;20041;-71
2022/05/06 11:12:39;;;;;;;3.33;1.80;;;21.30;61.20;;;;;;5055121;28;20388;-74
2022/05/06 11:15:10;;;;;;;5.25;1.60;;;21.40;58.90;;;;;;5055210;28;20041;-71
2022/05/06 11:17:37;;;;;;;3.80;1.85;;;21.50;61.30;;;;;;5055373;28;20045;-72
2022/05/06 11:20:16;;;;;;;4.30;2.00;;;21.60;61.80;;;;;;5054887;28;20051;-72
2022/05/06 11:22:56;;;;;;;2.92;1.73;;;21.70;61.70;;;;;;5054485;28;20391;-72
2022/05/06 11:25:23;;;;;;;5.43;1.95;;;21.70;56.30;;;;;;5056420;28;20443;-72
2022/05/06 11:27:51;;;;;;;2.13;1.30;;;21.70;58.50;;;;;;5055695;28;20041;-73
2022/05/06 11:30:19;;;;;;;4.35;1.83;;;21.70;57.10;;;;;;5054958;28;20048;-78
2022/05/06 11:32:54;;;;;;;4.07;2.00;;;21.80;59.30;;;;;;5056426;28;20461;-77
2022/05/06 11:35:24;;;;;;;2.42;1.52;;;21.80;56.70;;;;;;5054923;28;20349;-78
2022/05/06 11:37:51;;;;;;;3.22;1.65;;;21.80;56.80;;;;;;5055122;28;20049;-76
2022/05/06 11:42:59;;;;;;;6.13;5.32;;;22.00;56.50;;;;;;5054134;28;20107;-75
2022/05/06 11:48:13;;;;;;;3.50;2.20;;;22.20;57.00;;;;;;5054944;28;20369;-75
2022/05/06 11:50:41;;;;;;;3.87;1.87;;;22.20;55.70;;;;;;5053746;28;20049;-75
2022/05/06 11:53:10;;;;;;;3.60;1.70;;;22.30;57.90;;;;;;5054809;28;20297;-74
2022/05/06 11:55:41;;;;;;;2.80;1.50;;;22.50;56.90;;;;;;5054866;28;20041;-75
2022/05/06 11:58:12;;;;;;;1.90;1.40;;;22.40;55.00;;;;;;5054985;28;20071;-74
2022/05/06 12:00:40;;;;;;;2.28;1.80;;;22.50;54.40;;;;;;5053549;28;20511;-72
2022/05/06 12:03:07;;;;;;;2.28;1.42;;;22.40;54.30;;;;;;5054791;28;20364;-74
2022/05/06 12:05:34;;;;;;;3.40;2.35;;;22.40;53.00;;;;;;5053486;28;20041;-78
2022/05/06 12:08:01;;;;;;;3.30;2.00;;;22.40;53.50;;;;;;5038149;28;20041;-75
2022/05/06 12:10:29;;;;;;;2.30;1.60;;;22.40;55.50;;;;;;5054472;28;20037;-76
2022/05/06 12:12:57;;;;;;;3.35;1.58;;;22.40;53.60;;;;;;5054904;28;20045;-76
2022/05/06 12:15:32;;;;;;;2.05;1.65;;;22.30;54.30;;;;;;5037262;28;20045;-76
2022/05/06 12:18:18;;;;;;;3.92;2.17;;;22.30;55.00;;;;;;5054958;28;20048;-75
2022/05/06 12:20:46;;;;;;;2.80;1.75;;;22.30;56.30;;;;;;5053635;28;20048;-76
2022/05/06 12:23:14;;;;;;;3.35;2.08;;;22.40;53.80;;;;;;5054287;28;20491;-71
2022/05/06 12:25:41;;;;;;;13.25;11.00;;;22.50;55.90;;;;;;5054463;28;20037;-71
2022/05/06 12:28:09;;;;;;;11.00;9.38;;;22.70;55.10;;;;;;5053255;28;20052;-72
2022/05/06 12:30:36;;;;;;;6.75;2.70;;;22.90;56.60;;;;;;5055200;28;20340;-72
2022/05/06 12:33:11;;;;;;;4.35;2.20;;;23.00;54.80;;;;;;5055090;28;20053;-67
2022/05/06 12:36:00;;;;;;;5.20;2.53;;;23.00;55.90;;;;;;5053185;28;20052;-68
2022/05/06 12:38:36;;;;;;;4.63;2.78;;;23.10;57.60;;;;;;5053906;28;20062;-64
2022/05/06 12:41:23;;;;;;;4.15;2.15;;;23.20;58.40;;;;;;5053297;28;20041;-69
2022/05/06 12:43:50;;;;;;;2.92;1.70;;;23.30;51.90;;;;;;5054413;28;20052;-68
2022/05/06 12:46:29;;;;;;;2.70;1.65;;;23.30;53.40;;;;;;5054266;28;20040;-68
2022/05/06 12:51:44;;;;;;;2.88;1.67;;;23.30;49.80;;;;;;5054204;28;20535;-68
2022/05/06 12:54:12;;;;;;;5.40;2.22;;;23.30;50.10;;;;;;5036536;28;20423;-68
2022/05/06 12:56:39;;;;;;;3.67;1.88;;;23.20;50.60;;;;;;5052871;28;20380;-68
2022/05/06 12:59:07;;;;;;;4.63;2.40;;;23.30;51.60;;;;;;5036043;28;20480;-68
2022/05/06 13:01:34;;;;;;;3.38;2.22;;;23.30;52.40;;;;;;5035880;28;20056;-68
2022/05/06 13:04:01;;;;;;;2.95;1.98;;;23.20;52.50;;;;;;5053467;28;20503;-68
2022/05/06 13:06:30;;;;;;;6.55;1.90;;;23.10;52.30;;;;;;5054406;28;20426;-69
2022/05/06 13:08:57;;;;;;;4.35;2.03;;;23.20;53.90;;;;;;5052171;28;20041;-68
2022/05/06 13:11:23;;;;;;;7.35;2.33;;;23.40;54.40;;;;;;5053404;28;20060;-68
2022/05/06 13:13:50;;;;;;;5.72;1.98;;;23.50;52.40;;;;;;5052497;28;20045;-69
2022/05/06 13:16:17;;;;;;;2.22;1.55;;;23.50;51.60;;;;;;5052956;28;20048;-69
2022/05/06 13:18:50;;;;;;;4.38;2.20;;;23.30;52.40;;;;;;5054550;28;20049;-70
2022/05/06 13:21:17;;;;;;;;;;;23.40;50.30;;;;;;5052571;28;20041;-69
2022/05/06 13:23:44;;;;;;;4.63;2.03;;;23.50;51.50;;;;;;5052551;28;19917;-68
2022/05/06 13:26:11;;;;;;;4.20;2.08;;;23.50;51.60;;;;;;5051954;28;20048;-67
2022/05/06 13:28:38;;;;;;;5.25;1.80;;;23.40;50.90;;;;;;5051968;28;20048;-66
2022/05/06 13:31:05;;;;;;;2.95;1.98;;;23.40;51.30;;;;;;5051961;28;20052;-68
2022/05/06 13:33:32;;;;;;;4.18;2.25;;;23.40;50.40;;;;;;5054168;28;20044;-68
2022/05/06 13:35:59;;;;;;;4.68;2.80;;;23.40;51.50;;;;;;5053453;28;20049;-68
2022/05/06 13:38:26;;;;;;;4.13;2.13;;;23.30;51.20;;;;;;5053393;28;20048;-67